createdAt,value
2023-04-26T00:00:54.236Z,61.42
2023-04-26T00:03:23.578Z,61.39
2023-04-26T00:05:51.909Z,61.41
2023-04-26T00:08:19.994Z,61.40
2023-04-26T00:10:48.183Z,61.43
2023-04-26T00:13:16.339Z,61.37
2023-04-26T00:15:44.362Z,61.36
2023-04-26T00:18:12.814Z,61.33
2023-04-26T00:20:41.665Z,61.36
2023-04-26T00:23:11.003Z,61.40
2023-04-26T00:25:39.032Z,61.25
2023-04-26T00:28:06.886Z,61.38
2023-04-26T00:30:37.590Z,61.36
2023-04-26T00:33:05.648Z,61.39
2023-04-26T00:35:34.256Z,61.35
2023-04-26T00:38:02.232Z,61.40
2023-04-26T00:40:30.917Z,61.35
2023-04-26T00:42:59.393Z,61.25
2023-04-26T00:45:27.720Z,61.30
2023-04-26T00:47:56.346Z,61.21
2023-04-26T00:50:24.548Z,61.28
2023-04-26T00:52:52.936Z,61.24
2023-04-26T00:55:22.819Z,61.19
2023-04-26T00:57:51.030Z,61.19
2023-04-26T01:00:19.627Z,61.19
2023-04-26T01:02:47.794Z,61.13
2023-04-26T01:05:15.880Z,61.15
2023-04-26T01:07:46.311Z,61.03
2023-04-26T01:10:14.387Z,61.07
2023-04-26T01:12:42.459Z,61.07
2023-04-26T01:15:11.455Z,61.06
2023-04-26T01:17:39.713Z,61.02
2023-04-26T01:20:10.601Z,61.03
2023-04-26T01:22:38.586Z,60.91
2023-04-26T01:25:09.392Z,60.88
2023-04-26T01:27:37.419Z,60.80
2023-04-26T01:30:05.860Z,60.85
2023-04-26T01:32:35.210Z,60.80
2023-04-26T01:35:03.760Z,60.89
2023-04-26T01:37:31.915Z,60.96
2023-04-26T01:40:01.039Z,60.79
2023-04-26T01:42:28.924Z,60.84
2023-04-26T01:44:56.878Z,60.72
2023-04-26T01:47:26.582Z,60.70
2023-04-26T01:49:54.773Z,60.70
2023-04-26T01:52:23.047Z,60.62
2023-04-26T01:54:51.630Z,60.67
2023-04-26T01:57:21.655Z,60.66
2023-04-26T01:59:49.830Z,60.67
2023-04-26T02:02:19.047Z,60.69
2023-04-26T02:04:47.166Z,60.63
2023-04-26T02:07:16.100Z,60.62
2023-04-26T02:09:46.942Z,60.57
2023-04-26T02:12:15.026Z,60.68
2023-04-26T02:14:43.203Z,60.59
2023-04-26T02:17:11.389Z,60.59
2023-04-26T02:19:39.564Z,60.61
2023-04-26T02:22:08.153Z,60.57
2023-04-26T02:24:36.124Z,60.59
2023-04-26T02:27:05.575Z,60.55
2023-04-26T02:29:44.504Z,60.55
2023-04-26T02:32:14.181Z,60.53
2023-04-26T02:34:43.281Z,60.53
2023-04-26T02:37:11.656Z,60.50
2023-04-26T02:39:39.729Z,60.45
2023-04-26T02:42:11.094Z,60.35
2023-04-26T02:44:40.156Z,60.39
2023-04-26T02:47:09.681Z,60.37
2023-04-26T02:49:38.407Z,60.34
2023-04-26T02:52:06.343Z,60.37
2023-04-26T02:54:34.627Z,60.32
2023-04-26T02:57:02.906Z,60.42
2023-04-26T02:59:31.115Z,60.51
2023-04-26T03:01:59.222Z,60.56
2023-04-26T03:04:27.962Z,60.53
2023-04-26T03:06:56.036Z,60.54
2023-04-26T03:09:24.522Z,60.63
2023-04-26T03:11:52.843Z,60.60
2023-04-26T03:14:21.701Z,60.51
2023-04-26T03:16:49.892Z,60.61
2023-04-26T03:19:18.154Z,60.67
2023-04-26T03:21:47.677Z,60.68
2023-04-26T03:24:15.640Z,60.64
2023-04-26T03:26:43.626Z,60.68
2023-04-26T03:29:12.620Z,60.73
2023-04-26T03:31:41.100Z,60.69
2023-04-26T03:34:10.096Z,60.66
2023-04-26T03:36:38.689Z,60.57
2023-04-26T03:39:06.960Z,60.62
2023-04-26T03:41:39.651Z,60.64
2023-04-26T03:44:08.539Z,60.63
2023-04-26T03:46:37.000Z,60.61
2023-04-26T03:49:05.304Z,60.75
2023-04-26T03:51:33.281Z,60.74
2023-04-26T03:54:01.256Z,60.72
2023-04-26T03:56:29.449Z,60.70
2023-04-26T03:58:58.023Z,60.82
2023-04-26T04:01:27.040Z,60.79
2023-04-26T04:03:55.644Z,60.85
2023-04-26T04:06:24.089Z,60.72
2023-04-26T04:08:52.237Z,60.75
2023-04-26T04:11:21.603Z,60.77
2023-04-26T04:13:49.663Z,60.87
2023-04-26T04:16:18.185Z,60.88
2023-04-26T04:18:46.734Z,60.84
2023-04-26T04:21:14.910Z,60.87
2023-04-26T04:23:44.519Z,60.77
2023-04-26T04:26:14.262Z,60.81
2023-04-26T04:28:42.612Z,60.82
2023-04-26T04:31:10.606Z,60.76
2023-04-26T04:33:39.071Z,60.67
2023-04-26T04:36:08.491Z,60.70
2023-04-26T04:38:37.590Z,60.67
2023-04-26T04:41:08.532Z,60.65
2023-04-26T04:43:37.449Z,60.58
2023-04-26T04:46:05.554Z,60.64
2023-04-26T04:48:35.637Z,60.65
2023-04-26T04:51:03.908Z,60.70
2023-04-26T04:53:31.979Z,60.70
2023-04-26T04:56:00.967Z,60.70
2023-04-26T04:58:28.912Z,60.67
2023-04-26T05:00:58.256Z,60.63
2023-04-26T05:03:29.624Z,60.73
2023-04-26T05:05:57.993Z,60.69
2023-04-26T05:08:26.483Z,60.76
2023-04-26T05:10:56.939Z,60.74
2023-04-26T05:13:25.277Z,60.77
2023-04-26T05:15:53.269Z,60.73
2023-04-26T05:18:22.058Z,60.75
2023-04-26T05:20:50.858Z,60.78
2023-04-26T05:23:19.232Z,60.91
2023-04-26T05:25:47.316Z,60.86
2023-04-26T05:28:41.391Z,60.87
2023-04-26T05:31:45.111Z,60.84
2023-04-26T05:34:24.826Z,60.89
2023-04-26T05:36:57.011Z,60.94
2023-04-26T05:39:25.057Z,60.92
2023-04-26T05:41:52.987Z,61.03
2023-04-26T05:44:22.418Z,61.10
2023-04-26T05:46:51.060Z,61.03
2023-04-26T05:49:19.116Z,61.05
2023-04-26T05:51:47.340Z,61.16
2023-04-26T05:54:15.231Z,61.19
2023-04-26T05:56:43.485Z,61.19
2023-04-26T05:59:13.736Z,61.17
2023-04-26T06:01:42.639Z,61.33
2023-04-26T06:04:11.000Z,61.40
2023-04-26T06:06:53.122Z,61.51
2023-04-26T06:09:22.710Z,61.39
2023-04-26T06:11:51.165Z,61.67
2023-04-26T06:14:29.233Z,61.51
2023-04-26T06:16:59.297Z,61.59
2023-04-26T06:19:28.740Z,61.58
2023-04-26T06:21:57.654Z,61.64
2023-04-26T06:24:26.195Z,61.62
2023-04-26T06:26:54.928Z,61.66
2023-04-26T06:29:23.021Z,61.62
2023-04-26T06:31:52.407Z,61.54
2023-04-26T06:34:22.083Z,61.50
2023-04-26T06:36:51.159Z,61.53
2023-04-26T06:39:19.449Z,61.55
2023-04-26T06:41:48.946Z,61.64
2023-04-26T06:44:27.256Z,61.57
2023-04-26T06:47:03.508Z,61.64
2023-04-26T06:49:33.284Z,61.61
2023-04-26T06:52:01.759Z,61.52
2023-04-26T06:54:30.620Z,61.59
2023-04-26T06:57:01.262Z,61.56
2023-04-26T06:59:29.742Z,61.61
2023-04-26T07:01:58.524Z,61.46
2023-04-26T07:04:27.435Z,61.48
2023-04-26T07:06:56.082Z,61.57
2023-04-26T07:09:24.172Z,61.46
2023-04-26T07:11:52.175Z,61.52
2023-04-26T07:14:21.529Z,61.54
2023-04-26T07:16:49.997Z,61.63
2023-04-26T07:19:18.312Z,61.62
2023-04-26T07:21:46.518Z,61.65
2023-04-26T07:24:15.807Z,61.62
2023-04-26T07:26:44.114Z,61.73
2023-04-26T07:29:13.318Z,61.82
2023-04-26T07:31:42.407Z,61.80
2023-04-26T07:34:10.894Z,61.69
2023-04-26T07:36:39.265Z,61.75
2023-04-26T07:39:10.263Z,61.74
2023-04-26T07:41:38.656Z,61.84
2023-04-26T07:44:07.708Z,61.87
2023-04-26T07:46:36.165Z,61.84
2023-04-26T07:49:05.162Z,61.77
2023-04-26T07:51:35.241Z,61.70
2023-04-26T07:54:04.120Z,61.78
2023-04-26T07:56:33.028Z,61.84
2023-04-26T07:59:01.025Z,61.72
2023-04-26T08:01:29.283Z,61.79
2023-04-26T08:03:57.954Z,61.80
2023-04-26T08:06:27.544Z,61.75
2023-04-26T08:08:56.424Z,61.87
2023-04-26T08:11:25.163Z,61.72
2023-04-26T08:13:53.940Z,61.81
2023-04-26T08:16:22.770Z,61.74
2023-04-26T08:18:51.141Z,61.79
2023-04-26T08:21:19.727Z,61.85
2023-04-26T08:23:48.786Z,61.75
2023-04-26T08:26:20.393Z,61.75
2023-04-26T08:28:48.338Z,61.77
2023-04-26T08:31:17.795Z,61.88
2023-04-26T08:33:46.118Z,61.81
2023-04-26T08:36:15.391Z,61.76
2023-04-26T08:38:44.526Z,61.77
2023-04-26T08:41:16.852Z,61.82
2023-04-26T08:43:54.277Z,61.84
2023-04-26T08:46:22.742Z,61.85
2023-04-26T08:49:00.593Z,61.76
2023-04-26T08:51:31.967Z,61.76
2023-04-26T08:54:02.196Z,61.86
2023-04-26T08:56:35.482Z,61.69
2023-04-26T08:59:04.074Z,61.77
2023-04-26T09:01:33.378Z,61.78
2023-04-26T09:04:03.384Z,61.87
2023-04-26T09:06:32.969Z,61.78
2023-04-26T09:09:04.873Z,61.79
2023-04-26T09:11:51.770Z,61.87
2023-04-26T09:14:19.768Z,61.92
2023-04-26T09:16:47.700Z,61.81
2023-04-26T09:19:15.784Z,61.85
2023-04-26T09:21:47.670Z,61.89
2023-04-26T09:24:16.776Z,61.85
2023-04-26T09:26:44.791Z,61.78
2023-04-26T09:29:17.432Z,61.87
2023-04-26T09:31:49.526Z,61.93
2023-04-26T09:34:19.311Z,61.91
2023-04-26T09:36:57.042Z,61.86
2023-04-26T09:39:34.969Z,61.77
2023-04-26T09:42:11.391Z,61.83
2023-04-26T09:44:39.529Z,61.84
2023-04-26T09:47:10.416Z,61.74
2023-04-26T09:49:50.646Z,61.73
2023-04-26T09:52:19.469Z,61.81
2023-04-26T09:54:56.726Z,61.76
2023-04-26T09:57:24.961Z,61.67
2023-04-26T09:59:55.602Z,61.74
2023-04-26T10:02:26.767Z,61.71
2023-04-26T10:04:56.962Z,61.64
2023-04-26T10:07:26.294Z,61.55
2023-04-26T10:09:55.810Z,61.55
2023-04-26T10:12:24.762Z,61.48
2023-04-26T10:14:54.409Z,61.48
2023-04-26T10:17:24.550Z,61.41
2023-04-26T10:19:53.744Z,61.26
2023-04-26T10:22:30.146Z,61.31
2023-04-26T10:24:59.293Z,61.33
2023-04-26T10:27:45.657Z,61.28
2023-04-26T10:30:20.377Z,61.34
2023-04-26T10:32:57.984Z,61.41
2023-04-26T10:35:32.928Z,61.37
2023-04-26T10:38:01.399Z,61.41
2023-04-26T10:40:31.695Z,61.38
2023-04-26T10:43:14.383Z,61.36
2023-04-26T10:45:44.352Z,61.34
2023-04-26T10:48:28.031Z,61.25
2023-04-26T10:51:05.604Z,61.20
2023-04-26T10:53:52.292Z,61.17
2023-04-26T10:56:23.995Z,61.10
2023-04-26T11:01:44.354Z,60.97
2023-04-26T11:04:13.547Z,60.83
2023-04-26T11:06:52.255Z,60.75
2023-04-26T11:09:47.678Z,60.64
2023-04-26T11:12:16.698Z,60.71
2023-04-26T11:14:46.331Z,60.65
2023-04-26T11:17:14.551Z,60.59
2023-04-26T11:19:42.670Z,60.58
2023-04-26T11:22:11.552Z,60.52
2023-04-26T11:24:39.727Z,60.55
2023-04-26T11:27:11.637Z,60.52
2023-04-26T11:29:39.652Z,60.42
2023-04-26T11:32:08.227Z,60.37
2023-04-26T11:34:38.299Z,60.44
2023-04-26T11:37:06.968Z,60.36
2023-04-26T11:39:35.661Z,60.26
2023-04-26T11:42:09.704Z,60.33
2023-04-26T11:44:38.230Z,60.10
2023-04-26T11:47:07.051Z,60.01
2023-04-26T11:49:39.061Z,59.91
2023-04-26T11:52:08.926Z,59.90
2023-04-26T11:54:38.045Z,59.89
2023-04-26T11:57:17.269Z,59.68
2023-04-26T11:59:46.484Z,59.80
2023-04-26T12:02:15.257Z,59.63
2023-04-26T12:04:45.058Z,59.63
2023-04-26T12:07:18.492Z,59.30
2023-04-26T12:09:46.794Z,59.26
2023-04-26T12:12:15.223Z,59.27
2023-04-26T12:14:43.245Z,59.08
2023-04-26T12:17:14.976Z,59.03
2023-04-26T12:19:44.274Z,58.93
2023-04-26T12:22:20.448Z,58.94
2023-04-26T12:24:49.085Z,58.91
2023-04-26T12:27:21.190Z,58.73
2023-04-26T12:29:49.314Z,58.72
2023-04-26T12:32:20.109Z,58.51
2023-04-26T12:34:50.199Z,58.53
2023-04-26T12:37:18.692Z,58.46
2023-04-26T12:39:47.308Z,58.53
2023-04-26T12:42:15.428Z,58.63
2023-04-26T12:44:44.575Z,58.46
2023-04-26T12:47:14.682Z,58.35
2023-04-26T12:49:43.631Z,58.31
2023-04-26T12:52:12.062Z,58.33
2023-04-26T12:54:40.154Z,58.30
2023-04-26T12:57:09.606Z,58.33
2023-04-26T12:59:37.422Z,58.26
2023-04-26T13:02:05.364Z,58.17
2023-04-26T13:04:35.250Z,58.23
2023-04-26T13:07:05.232Z,58.27
2023-04-26T13:09:33.232Z,58.17
2023-04-26T13:12:01.608Z,58.10
2023-04-26T13:14:29.643Z,58.06
2023-04-26T13:16:57.703Z,58.03
2023-04-26T13:19:26.381Z,58.03
2023-04-26T13:21:54.911Z,57.96
2023-04-26T13:24:22.865Z,57.91
2023-04-26T13:26:51.073Z,57.96
2023-04-26T13:29:19.230Z,57.78
2023-04-26T13:31:47.580Z,57.74
2023-04-26T13:34:16.055Z,57.71
2023-04-26T13:36:49.044Z,57.73
2023-04-26T13:39:17.945Z,57.72
2023-04-26T13:41:46.529Z,57.53
2023-04-26T13:44:16.055Z,57.58
2023-04-26T13:46:45.798Z,57.55
2023-04-26T13:49:15.171Z,57.40
2023-04-26T13:51:44.663Z,57.52
2023-04-26T13:54:13.368Z,57.47
2023-04-26T13:56:42.199Z,57.33
2023-04-26T13:59:11.172Z,57.35
2023-04-26T14:01:40.873Z,57.36
2023-04-26T14:04:10.194Z,57.39
2023-04-26T14:06:39.485Z,57.35
2023-04-26T14:09:09.692Z,57.26
2023-04-26T14:11:38.064Z,57.22
2023-04-26T14:14:06.739Z,57.21
2023-04-26T14:16:35.630Z,57.17
2023-04-26T14:19:04.039Z,57.17
2023-04-26T14:21:32.576Z,57.08
2023-04-26T14:24:00.973Z,56.94
2023-04-26T14:26:29.306Z,56.93
2023-04-26T14:28:57.538Z,56.92
2023-04-26T14:31:26.393Z,56.93
2023-04-26T14:33:54.789Z,56.83
2023-04-26T14:36:23.691Z,56.89
2023-04-26T14:38:51.683Z,56.80
2023-04-26T14:41:20.482Z,56.72
2023-04-26T14:43:48.659Z,56.66
2023-04-26T14:46:17.347Z,56.61
2023-04-26T14:48:45.855Z,56.50
2023-04-26T14:51:14.400Z,56.44
2023-04-26T14:53:43.353Z,56.15
2023-04-26T14:56:12.256Z,56.10
2023-04-26T14:58:40.373Z,56.08
2023-04-26T15:01:09.507Z,56.11
2023-04-26T15:03:38.161Z,56.01
2023-04-26T15:06:08.731Z,55.79
2023-04-26T15:08:37.304Z,55.78
2023-04-26T15:11:05.812Z,55.67
2023-04-26T15:13:34.843Z,55.63
2023-04-26T15:16:07.381Z,55.55
2023-04-26T15:18:37.647Z,55.42
2023-04-26T15:21:07.348Z,55.55
2023-04-26T15:23:36.258Z,55.52
2023-04-26T15:26:04.820Z,55.42
2023-04-26T15:28:33.106Z,55.32
2023-04-26T15:31:04.965Z,55.14
2023-04-26T15:33:34.175Z,55.10
2023-04-26T15:36:02.925Z,54.80
2023-04-26T15:38:31.444Z,54.89
2023-04-26T15:40:59.566Z,54.90
2023-04-26T15:43:27.406Z,54.94
2023-04-26T15:45:55.816Z,54.83
2023-04-26T15:48:26.045Z,54.79
2023-04-26T15:50:56.875Z,54.75
2023-04-26T15:53:26.325Z,54.83
2023-04-26T15:55:56.545Z,54.76
2023-04-26T15:58:25.372Z,54.66
2023-04-26T16:00:53.533Z,54.76
2023-04-26T16:03:23.079Z,54.75
2023-04-26T16:05:51.884Z,54.56
2023-04-26T16:08:38.798Z,54.55
2023-04-26T16:11:07.871Z,54.33
2023-04-26T16:13:35.996Z,54.22
2023-04-26T16:16:09.139Z,54.33
2023-04-26T16:18:39.963Z,54.26
2023-04-26T16:21:10.348Z,54.32
2023-04-26T16:23:38.794Z,54.30
2023-04-26T16:26:07.926Z,54.27
2023-04-26T16:28:36.623Z,54.23
2023-04-26T16:31:06.917Z,54.21
2023-04-26T16:33:35.645Z,54.05
2023-04-26T16:36:03.952Z,54.09
2023-04-26T16:38:31.897Z,54.07
2023-04-26T16:41:01.855Z,54.04
2023-04-26T16:43:30.693Z,54.08
2023-04-26T16:46:03.191Z,54.00
2023-04-26T16:48:33.095Z,53.87
2023-04-26T16:51:04.875Z,53.82
2023-04-26T16:53:36.070Z,53.81
2023-04-26T16:56:05.725Z,53.77
2023-04-26T16:58:33.736Z,53.77
2023-04-26T17:01:01.939Z,53.75
2023-04-26T17:03:30.825Z,53.78
2023-04-26T17:06:00.209Z,53.67
2023-04-26T17:08:28.759Z,53.65
2023-04-26T17:10:56.921Z,53.74
2023-04-26T17:13:29.457Z,53.74
2023-04-26T17:15:57.577Z,53.70
2023-04-26T17:18:26.811Z,53.69
2023-04-26T17:20:56.618Z,53.56
2023-04-26T17:23:24.785Z,53.65
2023-04-26T17:25:55.072Z,53.55
2023-04-26T17:28:23.964Z,53.52
2023-04-26T17:30:52.199Z,53.51
2023-04-26T17:33:20.443Z,53.49
2023-04-26T17:35:49.438Z,53.52
2023-04-26T17:38:17.991Z,53.58
2023-04-26T17:40:51.456Z,53.54
2023-04-26T17:43:20.002Z,53.46
2023-04-26T17:45:48.582Z,53.48
2023-04-26T17:48:17.825Z,53.44
2023-04-26T17:50:46.420Z,53.48
2023-04-26T17:53:16.856Z,53.54
2023-04-26T17:55:45.412Z,53.56
2023-04-26T17:58:13.889Z,53.52
2023-04-26T18:00:42.081Z,53.46
2023-04-26T18:03:12.111Z,53.47
2023-04-26T18:05:40.590Z,53.47
2023-04-26T18:08:08.626Z,53.54
2023-04-26T18:10:37.196Z,53.57
2023-04-26T18:13:05.689Z,53.55
2023-04-26T18:15:33.911Z,53.41
2023-04-26T18:18:05.555Z,53.53
2023-04-26T18:20:35.567Z,53.54
2023-04-26T18:23:04.473Z,53.51
2023-04-26T18:25:32.592Z,53.50
2023-04-26T18:28:01.134Z,53.62
2023-04-26T18:30:30.264Z,53.59
2023-04-26T18:32:58.326Z,53.56
2023-04-26T18:35:26.926Z,53.57
2023-04-26T18:37:55.210Z,53.50
2023-04-26T18:40:23.935Z,53.56
2023-04-26T18:42:52.948Z,53.59
2023-04-26T18:45:21.501Z,53.64
2023-04-26T18:47:55.207Z,53.61
2023-04-26T18:50:26.698Z,53.61
2023-04-26T18:52:55.251Z,53.66
2023-04-26T18:55:27.206Z,53.62
2023-04-26T18:57:55.445Z,53.66
2023-04-26T19:00:23.929Z,53.58
2023-04-26T19:02:55.387Z,53.58
2023-04-26T19:05:24.693Z,53.57
2023-04-26T19:07:55.335Z,53.63
2023-04-26T19:10:24.045Z,53.62
2023-04-26T19:12:52.460Z,53.57
2023-04-26T19:15:21.273Z,53.57
2023-04-26T19:17:50.607Z,53.55
2023-04-26T19:20:20.170Z,53.56
2023-04-26T19:22:48.588Z,53.52
2023-04-26T19:25:20.523Z,53.50
2023-04-26T19:27:50.984Z,53.61
2023-04-26T19:30:19.461Z,53.55
2023-04-26T19:32:50.038Z,53.66
2023-04-26T19:35:18.019Z,53.64
2023-04-26T19:37:46.315Z,53.60
2023-04-26T19:40:17.189Z,53.61
2023-04-26T19:42:45.296Z,53.62
2023-04-26T19:45:13.943Z,53.66
2023-04-26T19:47:43.331Z,53.72
2023-04-26T19:50:11.571Z,53.76
2023-04-26T19:52:40.828Z,53.63
2023-04-26T19:55:11.072Z,53.61
2023-04-26T19:57:39.880Z,53.72
2023-04-26T20:00:10.431Z,53.59
2023-04-26T20:02:39.676Z,53.65
2023-04-26T20:05:08.221Z,53.62
2023-04-26T20:07:37.329Z,53.71
2023-04-26T20:10:06.292Z,53.69
2023-04-26T20:12:34.665Z,53.66
2023-04-26T20:15:03.059Z,53.76
2023-04-26T20:17:32.234Z,53.74
2023-04-26T20:20:01.550Z,53.72
2023-04-26T20:22:30.049Z,53.69
2023-04-26T20:24:58.718Z,53.69
2023-04-26T20:27:26.835Z,53.74
2023-04-26T20:29:54.840Z,53.78
2023-04-26T20:32:23.980Z,53.64
2023-04-26T20:34:52.358Z,53.70
2023-04-26T20:37:22.167Z,53.69
2023-04-26T20:39:50.610Z,53.70
2023-04-26T20:42:19.553Z,53.67
2023-04-26T20:44:47.805Z,53.86
2023-04-26T20:47:17.013Z,53.74
2023-04-26T20:49:45.056Z,53.70
2023-04-26T20:52:13.632Z,53.67
2023-04-26T20:54:41.785Z,53.80
2023-04-26T20:57:09.765Z,53.81
2023-04-26T20:59:38.098Z,53.80
2023-04-26T21:02:07.826Z,53.85
2023-04-26T21:04:38.670Z,53.66
2023-04-26T21:07:07.129Z,53.79
2023-04-26T21:09:35.433Z,53.62
2023-04-26T21:12:04.156Z,53.73
2023-04-26T21:14:32.755Z,53.57
2023-04-26T21:17:01.622Z,53.66
2023-04-26T21:19:29.850Z,53.69
2023-04-26T21:21:58.038Z,53.76
2023-04-26T21:24:26.756Z,53.73
2023-04-26T21:26:54.758Z,53.72
2023-04-26T21:29:22.840Z,53.80
2023-04-26T21:31:51.098Z,53.79
2023-04-26T21:34:19.372Z,53.84
2023-04-26T21:36:47.583Z,53.72
2023-04-26T21:39:16.246Z,53.88
2023-04-26T21:41:44.505Z,53.86
2023-04-26T21:44:13.436Z,53.88
2023-04-26T21:46:42.218Z,53.90
2023-04-26T21:49:11.266Z,53.77
2023-04-26T21:51:40.426Z,53.92
2023-04-26T21:54:09.538Z,53.94
2023-04-26T21:56:38.067Z,54.02
2023-04-26T21:59:08.443Z,53.98
2023-04-26T22:01:36.887Z,53.98
2023-04-26T22:04:05.558Z,53.94
2023-04-26T22:06:34.474Z,53.97
2023-04-26T22:09:04.321Z,54.12
2023-04-26T22:11:32.755Z,53.85
2023-04-26T22:14:01.151Z,54.00
2023-04-26T22:16:29.070Z,54.18
2023-04-26T22:18:58.722Z,53.95
2023-04-26T22:21:27.014Z,54.07
2023-04-26T22:23:54.999Z,53.99
2023-04-26T22:26:22.909Z,54.07
2023-04-26T22:28:50.996Z,54.13
2023-04-26T22:31:19.120Z,54.07
2023-04-26T22:33:47.742Z,54.03
2023-04-26T22:36:15.584Z,54.08
2023-04-26T22:38:43.591Z,54.24
2023-04-26T22:41:12.051Z,54.05
2023-04-26T22:43:43.919Z,54.15
2023-04-26T22:46:12.671Z,53.97
2023-04-26T22:48:42.425Z,54.14
2023-04-26T22:51:14.378Z,54.18
2023-04-26T22:53:43.457Z,54.27
2023-04-26T22:56:12.374Z,54.09
2023-04-26T22:58:41.870Z,54.15
2023-04-26T23:01:09.984Z,54.22
2023-04-26T23:03:38.745Z,54.17
2023-04-26T23:06:07.620Z,54.07
2023-04-26T23:08:36.569Z,54.14
2023-04-26T23:11:08.972Z,54.16
2023-04-26T23:13:37.155Z,54.20
2023-04-26T23:16:05.838Z,54.24
2023-04-26T23:18:35.278Z,54.16
2023-04-26T23:21:03.186Z,54.12
2023-04-26T23:23:33.327Z,54.10
2023-04-26T23:26:03.791Z,54.06
2023-04-26T23:28:33.039Z,54.12
2023-04-26T23:31:01.170Z,54.16
2023-04-26T23:33:31.706Z,54.12
2023-04-26T23:36:01.163Z,54.11
2023-04-26T23:38:29.636Z,54.08
2023-04-26T23:40:59.167Z,54.28
2023-04-26T23:43:28.693Z,54.09
2023-04-26T23:45:57.166Z,54.15
2023-04-26T23:48:25.799Z,54.33
2023-04-26T23:50:54.629Z,54.12
2023-04-26T23:53:24.003Z,54.25
2023-04-26T23:55:52.045Z,54.07
2023-04-26T23:58:22.044Z,54.23
